createdAt,value
2023-04-29T00:00:44.956Z,46
2023-04-29T00:03:17.094Z,40
2023-04-29T00:05:48.102Z,41
2023-04-29T00:08:18.813Z,43
2023-04-29T00:10:49.639Z,41
2023-04-29T00:13:20.436Z,40
2023-04-29T00:15:51.105Z,40
2023-04-29T00:18:22.380Z,39
2023-04-29T00:20:53.188Z,39
2023-04-29T00:23:24.186Z,30
2023-04-29T00:25:55.680Z,32
2023-04-29T00:28:27.468Z,35
2023-04-29T00:30:58.463Z,30
2023-04-29T00:33:29.102Z,29
2023-04-29T00:35:59.843Z,28
2023-04-29T00:38:31.416Z,30
2023-04-29T00:41:01.877Z,25
2023-04-29T00:43:32.757Z,23
2023-04-29T00:46:03.799Z,28
2023-04-29T00:48:34.578Z,29
2023-04-29T00:51:05.160Z,33
2023-04-29T00:53:36.213Z,25
2023-04-29T00:56:07.461Z,29
2023-04-29T00:58:37.792Z,24
2023-04-29T01:01:09.012Z,27
2023-04-29T01:03:40.477Z,30
2023-04-29T01:06:11.509Z,31
2023-04-29T01:08:41.681Z,27
2023-04-29T01:11:13.027Z,33
2023-04-29T01:13:44.236Z,27
2023-04-29T01:16:15.028Z,28
2023-04-29T01:18:46.233Z,24
2023-04-29T01:21:16.847Z,23
2023-04-29T01:23:47.846Z,24
2023-04-29T01:26:18.582Z,25
2023-04-29T01:28:49.163Z,23
2023-04-29T01:31:19.762Z,28
2023-04-29T01:33:50.592Z,27
2023-04-29T01:36:21.417Z,27
2023-04-29T01:38:52.560Z,25
2023-04-29T01:41:22.951Z,22
2023-04-29T01:43:54.089Z,25
2023-04-29T01:46:24.682Z,24
2023-04-29T01:48:55.725Z,22
2023-04-29T01:51:26.370Z,24
2023-04-29T01:53:57.046Z,24
2023-04-29T01:56:27.860Z,21
2023-04-29T01:58:57.013Z,23
2023-04-29T02:01:27.500Z,23
2023-04-29T02:03:57.878Z,25
2023-04-29T02:06:28.152Z,24
2023-04-29T02:08:58.826Z,26
2023-04-29T02:11:29.390Z,25
2023-04-29T02:14:00.048Z,24
2023-04-29T02:16:30.911Z,25
2023-04-29T02:19:01.576Z,27
2023-04-29T02:21:32.341Z,19
2023-04-29T02:24:03.005Z,17
2023-04-29T02:26:33.953Z,20
2023-04-29T02:29:04.532Z,23
2023-04-29T02:31:35.730Z,20
2023-04-29T02:34:06.652Z,24
2023-04-29T02:36:37.282Z,28
2023-04-29T02:39:07.990Z,20
2023-04-29T02:41:39.271Z,18
2023-04-29T02:44:09.991Z,20
2023-04-29T02:46:40.942Z,20
2023-04-29T02:49:11.989Z,17
2023-04-29T02:51:43.057Z,23
2023-04-29T02:54:13.288Z,23
2023-04-29T02:56:44.293Z,21
2023-04-29T02:59:15.218Z,17
2023-04-29T03:01:46.615Z,16
2023-04-29T03:04:17.929Z,14
2023-04-29T03:06:48.454Z,20
2023-04-29T03:09:19.550Z,18
2023-04-29T03:11:50.509Z,20
2023-04-29T03:14:21.220Z,19
2023-04-29T03:16:51.409Z,31
2023-04-29T03:19:22.557Z,20
2023-04-29T03:21:53.993Z,21
2023-04-29T03:24:24.542Z,27
2023-04-29T03:26:55.422Z,24
2023-04-29T03:29:26.420Z,27
2023-04-29T03:31:57.604Z,21
2023-04-29T03:34:28.166Z,29
2023-04-29T03:36:59.044Z,32
2023-04-29T03:39:30.605Z,25
2023-04-29T03:42:01.949Z,29
2023-04-29T03:44:33.352Z,22
2023-04-29T03:47:04.457Z,20
2023-04-29T03:49:35.141Z,32
2023-04-29T03:52:06.201Z,24
2023-04-29T03:54:37.124Z,24
2023-04-29T03:57:08.051Z,27
2023-04-29T03:59:39.045Z,23
2023-04-29T04:02:10.087Z,25
2023-04-29T04:04:41.678Z,21
2023-04-29T04:07:12.157Z,28
2023-04-29T04:09:42.913Z,25
2023-04-29T04:12:13.662Z,23
2023-04-29T04:14:44.034Z,29
2023-04-29T04:17:15.138Z,26
2023-04-29T04:19:46.131Z,21
2023-04-29T04:22:17.279Z,33
2023-04-29T04:24:48.733Z,22
2023-04-29T04:27:20.293Z,20
2023-04-29T04:29:50.867Z,23
2023-04-29T04:32:21.856Z,27
2023-04-29T04:34:52.470Z,28
2023-04-29T04:37:23.040Z,32
2023-04-29T04:39:54.405Z,27
2023-04-29T04:42:25.154Z,28
2023-04-29T04:44:56.452Z,29
2023-04-29T04:47:27.180Z,25
2023-04-29T04:49:57.626Z,24
2023-04-29T04:52:28.766Z,29
2023-04-29T04:54:59.724Z,29
2023-04-29T04:57:30.407Z,25
2023-04-29T05:00:01.870Z,28
2023-04-29T05:02:32.987Z,27
2023-04-29T05:05:03.812Z,26
2023-04-29T05:07:34.805Z,28
2023-04-29T05:10:05.423Z,26
2023-04-29T05:12:36.478Z,29
2023-04-29T05:15:07.526Z,36
2023-04-29T06:33:40.425Z,33
2023-04-29T06:36:20.127Z,40
2023-04-29T06:38:50.955Z,40
2023-04-29T06:41:25.245Z,45
2023-04-29T06:44:04.925Z,34
2023-04-29T06:46:36.389Z,35
2023-04-29T06:49:07.444Z,43
2023-04-29T06:51:38.451Z,43
2023-04-29T06:54:14.891Z,32
2023-04-29T06:56:45.481Z,35
2023-04-29T06:59:17.131Z,34
2023-04-29T07:01:49.965Z,37
2023-04-29T07:04:18.454Z,45
2023-04-29T07:06:50.253Z,56
2023-04-29T07:09:21.251Z,40
2023-04-29T07:11:50.469Z,32
2023-04-29T07:14:21.106Z,36
2023-04-29T07:16:51.980Z,35
2023-04-29T07:19:23.460Z,43
2023-04-29T07:21:53.868Z,29
2023-04-29T07:24:24.602Z,35
2023-04-29T07:26:55.370Z,29
2023-04-29T07:29:25.617Z,31
2023-04-29T07:31:54.475Z,27
2023-04-29T07:34:28.119Z,24
2023-04-29T07:36:58.333Z,32
2023-04-29T07:39:28.310Z,25
2023-04-29T07:41:59.683Z,31
2023-04-29T07:44:30.172Z,29
2023-04-29T07:47:00.637Z,27
2023-04-29T07:49:32.463Z,67
2023-04-29T07:52:04.195Z,26
2023-04-29T07:54:34.809Z,25
2023-04-29T07:57:05.711Z,21
2023-04-29T07:59:38.442Z,40
2023-04-29T08:02:08.640Z,33
2023-04-29T08:04:41.547Z,28
2023-04-29T08:07:11.856Z,24
2023-04-29T08:09:43.457Z,22
2023-04-29T08:12:12.599Z,27
2023-04-29T08:14:44.294Z,21
2023-04-29T08:17:15.225Z,24
2023-04-29T08:19:45.955Z,36
2023-04-29T08:22:16.212Z,29
2023-04-29T08:24:47.789Z,24
2023-04-29T08:27:18.719Z,29
2023-04-29T08:29:48.993Z,23
2023-04-29T08:32:19.511Z,26
2023-04-29T08:34:51.879Z,23
2023-04-29T08:37:21.850Z,22
2023-04-29T08:39:52.918Z,24
2023-04-29T08:42:23.374Z,21
2023-04-29T08:44:54.026Z,27
2023-04-29T08:47:25.524Z,25
2023-04-29T08:49:55.948Z,24
2023-04-29T08:52:28.656Z,24
2023-04-29T08:54:59.499Z,19
2023-04-29T08:57:29.018Z,23
2023-04-29T09:00:00.605Z,16
2023-04-29T09:02:31.297Z,24
2023-04-29T09:05:01.865Z,17
2023-04-29T09:07:32.629Z,20
2023-04-29T09:10:01.638Z,19
2023-04-29T09:12:31.881Z,29
2023-04-29T09:15:03.486Z,31
2023-04-29T09:17:40.269Z,27
2023-04-29T09:20:12.567Z,36
2023-04-29T09:22:44.183Z,22
2023-04-29T09:25:14.692Z,24
2023-04-29T09:27:45.045Z,23
2023-04-29T09:30:15.494Z,23
2023-04-29T09:32:44.630Z,19
2023-04-29T09:35:16.352Z,20
2023-04-29T09:37:46.992Z,43
2023-04-29T09:40:17.969Z,35
2023-04-29T09:42:49.710Z,24
2023-04-29T09:45:20.828Z,17
2023-04-29T09:47:52.666Z,22
2023-04-29T09:50:23.797Z,21
2023-04-29T09:52:54.775Z,24
2023-04-29T09:55:25.607Z,26
2023-04-29T09:57:54.845Z,31
2023-04-29T10:00:25.911Z,29
2023-04-29T10:02:56.225Z,23
2023-04-29T10:05:27.042Z,19
2023-04-29T10:07:57.410Z,21
2023-04-29T10:10:30.006Z,24
2023-04-29T10:12:58.568Z,20
2023-04-29T10:15:29.378Z,19
2023-04-29T10:18:00.002Z,16
2023-04-29T10:20:33.384Z,20
2023-04-29T10:23:09.094Z,18
2023-04-29T10:25:39.681Z,24
2023-04-29T10:28:08.877Z,18
2023-04-29T10:30:39.525Z,28
2023-04-29T10:33:11.040Z,24
2023-04-29T10:35:41.217Z,29
2023-04-29T10:38:11.854Z,28
2023-04-29T10:40:42.212Z,20
2023-04-29T10:43:12.907Z,21
2023-04-29T10:45:43.816Z,20
2023-04-29T10:48:14.886Z,20
2023-04-29T10:50:46.507Z,25
2023-04-29T10:53:19.368Z,24
2023-04-29T10:55:50.104Z,24
2023-04-29T10:58:20.665Z,19
2023-04-29T11:00:50.969Z,19
2023-04-29T11:03:22.706Z,18
2023-04-29T11:05:55.552Z,20
2023-04-29T11:08:26.685Z,29
2023-04-29T11:10:57.514Z,16
2023-04-29T11:13:28.286Z,24
2023-04-29T11:15:58.694Z,19
2023-04-29T11:18:29.219Z,25
2023-04-29T11:21:00.086Z,28
2023-04-29T11:23:31.438Z,20
2023-04-29T11:26:04.341Z,19
2023-04-29T11:28:34.792Z,24
2023-04-29T11:31:05.389Z,27
2023-04-29T11:33:35.694Z,39
2023-04-29T11:36:06.029Z,66
2023-04-29T11:38:43.521Z,24
2023-04-29T11:41:12.602Z,27
2023-04-29T11:43:44.620Z,39
2023-04-29T11:46:15.571Z,36
2023-04-29T11:48:45.912Z,42
2023-04-29T11:51:15.119Z,25
2023-04-29T11:53:46.004Z,26
2023-04-29T11:56:16.281Z,36
2023-04-29T11:58:47.044Z,20
2023-04-29T12:01:17.409Z,17
2023-04-29T12:03:46.940Z,20
2023-04-29T12:06:18.990Z,19
2023-04-29T12:08:49.359Z,19
2023-04-29T12:11:20.472Z,18
2023-04-29T12:13:52.661Z,15
2023-04-29T12:16:23.027Z,16
2023-04-29T12:18:54.470Z,14
2023-04-29T12:21:26.115Z,15
2023-04-29T12:23:56.946Z,17
2023-04-29T12:26:28.483Z,17
2023-04-29T12:28:58.938Z,13
2023-04-29T12:31:29.694Z,21
2023-04-29T12:34:01.326Z,19
2023-04-29T12:36:41.670Z,13
2023-04-29T12:39:12.481Z,15
2023-04-29T12:41:43.901Z,14
2023-04-29T12:44:13.161Z,18
2023-04-29T12:46:44.363Z,17
2023-04-29T12:49:14.145Z,19
2023-04-29T12:51:44.591Z,15
2023-04-29T12:54:17.341Z,16
2023-04-29T12:56:48.297Z,19
2023-04-29T12:59:18.424Z,23
2023-04-29T13:01:49.564Z,16
2023-04-29T13:04:19.536Z,15
2023-04-29T13:06:51.302Z,20
2023-04-29T13:09:25.444Z,20
2023-04-29T13:11:56.011Z,17
2023-04-29T13:14:28.142Z,28
2023-04-29T13:17:00.904Z,16
2023-04-29T13:19:43.898Z,14
2023-04-29T13:22:02.163Z,17
2023-04-29T13:24:32.582Z,23
2023-04-29T13:27:03.246Z,20
2023-04-29T13:29:33.956Z,17
2023-04-29T13:32:06.019Z,16
2023-04-29T13:34:36.623Z,17
2023-04-29T13:37:07.263Z,15
2023-04-29T13:39:38.967Z,20
2023-04-29T13:42:11.038Z,20
2023-04-29T13:47:11.294Z,19
2023-04-29T13:50:16.473Z,18
2023-04-29T13:59:52.771Z,19
2023-04-29T14:02:25.310Z,21
2023-04-29T14:04:53.161Z,23
2023-04-29T14:07:23.509Z,17
2023-04-29T14:09:53.944Z,19
2023-04-29T14:12:23.007Z,23
2023-04-29T14:14:53.532Z,24
2023-04-29T14:17:25.039Z,20
2023-04-29T14:19:56.487Z,22
2023-04-29T14:22:27.484Z,17
2023-04-29T14:24:58.138Z,17
2023-04-29T14:27:28.818Z,23
2023-04-29T14:29:59.723Z,16
2023-04-29T14:32:33.425Z,16
2023-04-29T14:35:03.849Z,19
2023-04-29T14:37:34.455Z,17
2023-04-29T14:40:04.491Z,14
2023-04-29T14:42:44.532Z,15
2023-04-29T14:45:13.185Z,20
2023-04-29T14:47:43.179Z,20
2023-04-29T14:50:13.409Z,17
2023-04-29T14:52:43.711Z,13
2023-04-29T14:55:14.632Z,16
2023-04-29T14:57:45.080Z,20
2023-04-29T15:00:15.125Z,21
2023-04-29T15:02:46.023Z,17
2023-04-29T15:05:17.065Z,36
2023-04-29T15:07:50.827Z,24
2023-04-29T15:10:22.369Z,21
2023-04-29T15:12:53.326Z,21
2023-04-29T15:15:23.872Z,17
2023-04-29T15:17:56.278Z,16
2023-04-29T15:20:25.284Z,25
2023-04-29T15:22:55.987Z,19
2023-04-29T15:25:31.650Z,15
2023-04-29T15:28:03.607Z,24
2023-04-29T15:30:35.254Z,20
2023-04-29T15:33:06.032Z,17
2023-04-29T15:35:36.107Z,18
2023-04-29T15:38:07.561Z,16
2023-04-29T15:40:38.217Z,21
2023-04-29T15:43:10.990Z,15
2023-04-29T15:45:41.541Z,35
2023-04-29T15:48:12.365Z,25
2023-04-29T15:50:45.750Z,20
2023-04-29T15:53:16.099Z,23
2023-04-29T15:55:46.809Z,21
2023-04-29T15:58:15.862Z,28
2023-04-29T16:00:46.423Z,20
2023-04-29T16:03:17.359Z,28
2023-04-29T16:05:47.583Z,27
2023-04-29T16:08:20.123Z,19
2023-04-29T16:10:50.463Z,19
2023-04-29T16:13:21.206Z,25
2023-04-29T16:15:52.182Z,22
2023-04-29T16:18:22.609Z,16
2023-04-29T16:20:53.184Z,13
2023-04-29T16:23:23.554Z,16
2023-04-29T16:25:54.290Z,12
2023-04-29T16:28:25.605Z,20
2023-04-29T16:30:56.293Z,24
2023-04-29T16:33:29.279Z,24
2023-04-29T16:36:03.934Z,27
2023-04-29T16:38:34.720Z,26
2023-04-29T16:41:06.279Z,23
2023-04-29T16:43:50.197Z,24
2023-04-29T16:46:33.839Z,12
2023-04-29T16:49:04.123Z,15
2023-04-29T16:51:34.244Z,17
2023-04-29T16:54:04.632Z,16
2023-04-29T16:56:34.860Z,16
2023-04-29T16:59:06.894Z,18
2023-04-29T17:01:37.739Z,15
2023-04-29T17:04:08.319Z,13
2023-04-29T17:06:38.839Z,15
2023-04-29T17:09:09.452Z,15
2023-04-29T17:11:40.425Z,20
2023-04-29T17:14:10.872Z,20
2023-04-29T17:16:41.620Z,17
2023-04-29T17:19:12.936Z,20
2023-04-29T17:21:47.388Z,12
2023-04-29T17:24:19.232Z,20
2023-04-29T17:26:49.980Z,16
2023-04-29T17:29:21.365Z,14
2023-04-29T17:31:52.050Z,16
2023-04-29T17:34:21.457Z,19
2023-04-29T17:36:51.874Z,17
2023-04-29T17:39:21.068Z,23
2023-04-29T17:41:52.730Z,23
2023-04-29T17:44:24.473Z,19
2023-04-29T17:46:57.638Z,17
2023-04-29T17:49:29.374Z,19
2023-04-29T17:52:01.164Z,20
2023-04-29T17:54:32.095Z,20
2023-04-29T17:57:07.531Z,16
2023-04-29T17:59:38.075Z,17
2023-04-29T18:02:09.870Z,15
2023-04-29T18:04:43.211Z,23
2023-04-29T18:07:14.256Z,13
2023-04-29T18:09:44.596Z,20
2023-04-29T18:12:15.120Z,33
2023-04-29T18:14:45.489Z,38
2023-04-29T18:17:16.062Z,24
2023-04-29T18:19:50.545Z,16
2023-04-29T18:22:20.582Z,17
2023-04-29T18:24:52.463Z,20
2023-04-29T18:27:24.627Z,23
2023-04-29T18:29:55.651Z,24
2023-04-29T18:32:25.992Z,24
2023-04-29T18:34:56.712Z,27
2023-04-29T18:37:27.463Z,29
2023-04-29T18:39:59.356Z,24
2023-04-29T18:42:32.084Z,24
2023-04-29T18:45:02.879Z,28
2023-04-29T18:47:33.659Z,34
2023-04-29T18:50:05.129Z,32
2023-04-29T18:52:35.915Z,39
2023-04-29T18:55:06.454Z,37
2023-04-29T18:57:37.184Z,29
2023-04-29T19:00:08.351Z,32
2023-04-29T19:02:39.557Z,32
2023-04-29T19:05:08.734Z,37
2023-04-29T19:07:39.573Z,40
2023-04-29T19:10:12.890Z,31
2023-04-29T19:12:43.678Z,36
2023-04-29T19:15:14.197Z,29
2023-04-29T19:17:44.672Z,29
2023-04-29T19:20:14.866Z,33
2023-04-29T19:22:45.367Z,36
2023-04-29T19:25:16.145Z,28
2023-04-29T19:27:52.002Z,26
2023-04-29T19:30:22.749Z,31
2023-04-29T19:32:53.165Z,30
2023-04-29T19:35:23.459Z,25
2023-04-29T19:38:01.072Z,32
2023-04-29T19:40:39.278Z,42
2023-04-29T19:43:12.619Z,44
2023-04-29T19:45:43.131Z,33
2023-04-29T19:49:52.612Z,44
2023-04-29T19:52:24.924Z,41
2023-04-29T19:57:53.771Z,47
2023-04-29T20:16:20.125Z,36
2023-04-29T20:18:51.490Z,52
2023-04-29T20:21:22.044Z,47
2023-04-29T20:23:52.240Z,37
2023-04-29T20:29:00.720Z,67
2023-04-29T20:31:31.906Z,59
2023-04-29T20:34:02.354Z,57
2023-04-29T20:36:33.111Z,57
2023-04-29T20:39:03.746Z,57
2023-04-29T20:41:34.633Z,60
2023-04-29T20:44:05.327Z,58
2023-04-29T20:46:35.627Z,63
2023-04-29T20:49:06.686Z,65
2023-04-29T20:51:37.421Z,64
2023-04-29T20:54:08.298Z,65
2023-04-29T20:56:39.048Z,60
2023-04-29T20:59:09.567Z,58
2023-04-29T21:01:38.934Z,60
2023-04-29T21:04:09.168Z,64
2023-04-29T21:06:39.550Z,57
2023-04-29T21:09:11.141Z,55
2023-04-29T21:11:42.981Z,57
2023-04-29T21:14:19.607Z,57
2023-04-29T21:16:52.031Z,52
2023-04-29T21:19:35.528Z,52
2023-04-29T21:22:06.654Z,49
2023-04-29T21:24:38.525Z,47
2023-04-29T21:27:07.770Z,48
2023-04-29T21:29:38.058Z,48
2023-04-29T21:32:09.880Z,48
2023-04-29T21:34:40.440Z,49
2023-04-29T21:37:11.367Z,45
2023-04-29T21:39:42.256Z,40
2023-04-29T21:42:12.424Z,40
2023-04-29T21:47:28.990Z,43
2023-04-29T21:49:59.561Z,48
2023-04-29T21:52:32.632Z,45
2023-04-29T21:55:07.426Z,44
2023-04-29T21:57:43.932Z,51
2023-04-29T22:00:06.325Z,52
2023-04-29T22:02:37.321Z,48
2023-04-29T22:05:07.784Z,53
2023-04-29T22:07:38.596Z,48
2023-04-29T22:10:09.200Z,51
2023-04-29T22:12:41.099Z,44
2023-04-29T22:15:20.891Z,46
2023-04-29T22:17:42.744Z,49
2023-04-29T22:20:13.345Z,47
2023-04-29T22:22:43.856Z,51
2023-04-29T22:25:14.798Z,40
2023-04-29T22:27:46.108Z,44
2023-04-29T22:30:17.228Z,43
2023-04-29T22:32:49.493Z,46
2023-04-29T22:35:20.454Z,47
2023-04-29T22:37:56.635Z,43
2023-04-29T22:46:06.267Z,40
2023-04-29T22:48:37.046Z,44
2023-04-29T22:51:08.149Z,49
2023-04-29T22:53:38.876Z,41
2023-04-29T22:56:09.528Z,48
2023-04-29T22:58:40.436Z,45
2023-04-29T23:01:12.070Z,47
2023-04-29T23:03:43.084Z,52
2023-04-29T23:06:13.940Z,52
2023-04-29T23:08:44.522Z,53
2023-04-29T23:11:15.741Z,43
2023-04-29T23:13:46.273Z,45
2023-04-29T23:16:17.543Z,43
2023-04-29T23:18:50.101Z,45
2023-04-29T23:21:25.919Z,52
2023-04-29T23:23:57.110Z,48
2023-04-29T23:26:27.723Z,52
2023-04-29T23:28:59.259Z,46
2023-04-29T23:31:30.163Z,48
2023-04-29T23:34:02.004Z,52
2023-04-29T23:36:32.818Z,53
2023-04-29T23:39:03.635Z,51
2023-04-29T23:41:34.590Z,52
2023-04-29T23:44:04.952Z,48
2023-04-29T23:46:34.000Z,46
2023-04-29T23:49:04.411Z,52
2023-04-29T23:51:33.756Z,45
2023-04-29T23:54:04.675Z,56
2023-04-29T23:56:41.130Z,49
2023-04-29T23:59:12.204Z,46
